Niagara Falls International Airport
KIAG : now visible

Airfield :











YOU CAN JOIN US ON...

 
LOGIN :

Register | Disclaimer

   EN    FR    IT 

 









Legend :    VFR   Marginal VFR   IFR   Intensive IFR   Very Intensive IFR
Visi :
Ceiling :
>= 8 km
>= 3000ft
5 to 8 km
1000 to 3000 ft
1500m to 5 km
500 to 1000 ft
800 to 1500m
200 to 500 ft
< 800m
< 200 ft
Symbols :   Thunderstorms  Fog  Heavy snow  Heavy precipitations  Wind > 20 kt






- Airport Elevation : 589 ft
- IATA code : IAG


KIAG - Niagara Falls International

CURRENT METAR :
  • 241153Z 21009KT 10SM CLR 03/M03 A2990 RMK AO2 SLP135 T00281028 10056 20028 51006

EXPIRED METARs :
  • 241053Z AUTO 23010KT 10SM CLR 03/M03 A2989 RMK AO2 SLP133 T00281028
  • 240953Z AUTO 22011KT 10SM CLR 03/M03 A2989 RMK AO2 SLP130 T00331028
  • 240853Z AUTO 23015KT 10SM CLR 04/M03 A2988 RMK AO2 SLP127 T00391033 58007

TAF KIAG
Valid from the 24 at 12:00 until the 25 at 12:00 UTC


241136Z 2412/2512 23010KT P6SM FEW250
FM241400 23010G16KT P6SM SCT250
FM242000 29004KT P6SM BKN200
FM250800 04007KT P6SM OVC025
FM251100 05008KT 2SM -RA BR OVC012



MET'MAP, your aeronautical weather chart ! - Copyright ORBIFLY December 2007 - Disclaimer

ORBIFLY MET'MAP TEAM :

Programming & Development : Alexandra Zaïnal
Concept & original design : Baudouin d'Aumeries
Assistance for programming : Marc-Olivier Méhu
Technical & hardware support : Manuel Goepfert

Contact : metmap@orbifly.com




SOURCES & CREDITS :

   NOAA       Earth
Advisory